Impacts TAF Board INFO
FOR SITUATIONAL AWARENESS. NOT TO BE USED FOR FLIGHT PLANNING PURPOSES.
IDs:

KMCB - McComb/Lewis Fld, MS, US

Issued at 1720 UTC 24 Apr 2018
Updated at 2051 UTC 24 Apr 2018
Potential Impact None Slight Moderate High
Time1953Z 24/21Z 24/22Z 24/23Z 25/00Z 25/01Z 25/02Z 25/03Z 25/04Z 25/05Z 25/06Z 25/07Z 25/08Z 25/09Z>>
Type OBS PRVL PRVL PRVL PRVL PRVL PRVL PRVL PRVL PRVL PRVL PRVL PRVL PRVL
VIS 10 >6 >6 >6 >6 >6 >6 >6 >6 >6 >6 >6 >6 >6
CIG 49 -- -- -- -- -- -- -- -- -- -- -- -- --
Cover BKN FEW FEW FEW FEW FEW SKC SKC SKC SKC SKC SKC SKC SKC
FltCat VFR VFR VFR VFR VFR VFR VFR VFR VFR VFR VFR VFR VFR VFR
WX -- -- -- -- -- -- -- -- -- -- -- -- -- --
WDir 290 310 310 310 310 310 VRB VRB VRB VRB VRB VRB VRB VRB
WSpd 7 12 12 12 12 12 3 3 3 3 3 3 3 3
WGst 17 18 18 18 18 18 -- -- -- -- -- -- -- --

Raw TAF
KMCB 241720Z 2418/2518 31012G18KT P6SM FEW030
  FM250200 VRB03KT P6SM SKC
  FM251000 00000KT 2SM BR SKC


Raw METAR
KMCB 241953Z AUTO 29007G17KT 10SM BKN049 25/12 A2998 RMK AO2 SLP149 T02500117
KMCB 241853Z AUTO 30006KT 10SM BKN045 23/12 A3000 RMK AO2 SLP155 T02330117
KMCB 241753Z AUTO 28007KT 250V320 10SM SCT043 23/12 A3001 RMK AO2 SLP158 T02280117 10239 20133 58008

METAR Board
Radar Display
Forecast Discussion

FOR SITUATIONAL AWARENESS. NOT TO BE USED FOR FLIGHT PLANNING PURPOSES.